sensor_id;sensor_type;location;lat;lon;timestamp;P1;durP1;ratioP1;P2;durP2;ratioP2
8663;SDS011;4369;47.842;13.096;2023-05-07T00:05:44;6.03;;;5.23;;
8663;SDS011;4369;47.842;13.096;2023-05-07T00:08:11;7.67;;;5.43;;
8663;SDS011;4369;47.842;13.096;2023-05-07T00:10:38;7.33;;;5.37;;
8663;SDS011;4369;47.842;13.096;2023-05-07T00:13:05;5.80;;;5.30;;
8663;SDS011;4369;47.842;13.096;2023-05-07T00:28:31;7.50;;;5.07;;
8663;SDS011;4369;47.842;13.096;2023-05-07T00:30:58;5.87;;;5.03;;
8663;SDS011;4369;47.842;13.096;2023-05-07T00:33:25;6.37;;;4.97;;
8663;SDS011;4369;47.842;13.096;2023-05-07T00:35:52;6.20;;;4.77;;
8663;SDS011;4369;47.842;13.096;2023-05-07T00:38:20;5.77;;;5.07;;
8663;SDS011;4369;47.842;13.096;2023-05-07T00:40:47;5.90;;;5.10;;
8663;SDS011;4369;47.842;13.096;2023-05-07T00:45:43;5.40;;;4.90;;
8663;SDS011;4369;47.842;13.096;2023-05-07T00:48:10;6.30;;;5.03;;
8663;SDS011;4369;47.842;13.096;2023-05-07T00:50:38;6.60;;;5.57;;
8663;SDS011;4369;47.842;13.096;2023-05-07T00:53:05;5.43;;;4.93;;
8663;SDS011;4369;47.842;13.096;2023-05-07T00:55:34;6.23;;;4.80;;
8663;SDS011;4369;47.842;13.096;2023-05-07T00:58:02;6.77;;;5.23;;
8663;SDS011;4369;47.842;13.096;2023-05-07T01:00:30;7.53;;;5.63;;
8663;SDS011;4369;47.842;13.096;2023-05-07T01:02:59;6.77;;;5.27;;
8663;SDS011;4369;47.842;13.096;2023-05-07T01:05:26;8.07;;;6.13;;
8663;SDS011;4369;47.842;13.096;2023-05-07T01:07:55;7.30;;;5.50;;
8663;SDS011;4369;47.842;13.096;2023-05-07T01:28:33;5.53;;;4.90;;
8663;SDS011;4369;47.842;13.096;2023-05-07T01:31:01;5.47;;;4.97;;
8663;SDS011;4369;47.842;13.096;2023-05-07T01:33:30;6.57;;;4.90;;
8663;SDS011;4369;47.842;13.096;2023-05-07T01:35:59;5.90;;;5.10;;
8663;SDS011;4369;47.842;13.096;2023-05-07T01:41:04;8.17;;;5.13;;
8663;SDS011;4369;47.842;13.096;2023-05-07T01:43:31;6.03;;;4.63;;
8663;SDS011;4369;47.842;13.096;2023-05-07T01:46:00;4.87;;;4.43;;
8663;SDS011;4369;47.842;13.096;2023-05-07T01:48:29;6.27;;;4.50;;
8663;SDS011;4369;47.842;13.096;2023-05-07T01:50:56;4.90;;;4.50;;
8663;SDS011;4369;47.842;13.096;2023-05-07T01:53:25;5.83;;;4.90;;
8663;SDS011;4369;47.842;13.096;2023-05-07T01:56:08;4.83;;;4.33;;
8663;SDS011;4369;47.842;13.096;2023-05-07T01:58:42;8.53;;;5.10;;
8663;SDS011;4369;47.842;13.096;2023-05-07T02:03:46;5.53;;;5.00;;
8663;SDS011;4369;47.842;13.096;2023-05-07T02:08:48;5.60;;;4.93;;
8663;SDS011;4369;47.842;13.096;2023-05-07T02:11:16;5.67;;;4.60;;
8663;SDS011;4369;47.842;13.096;2023-05-07T02:13:44;4.93;;;4.50;;
8663;SDS011;4369;47.842;13.096;2023-05-07T02:16:12;8.33;;;5.33;;
8663;SDS011;4369;47.842;13.096;2023-05-07T02:18:39;5.47;;;4.90;;
8663;SDS011;4369;47.842;13.096;2023-05-07T02:21:07;6.10;;;5.50;;
8663;SDS011;4369;47.842;13.096;2023-05-07T02:23:34;6.40;;;5.37;;
8663;SDS011;4369;47.842;13.096;2023-05-07T02:28:45;5.50;;;5.00;;
8663;SDS011;4369;47.842;13.096;2023-05-07T02:59:10;5.07;;;4.53;;
8663;SDS011;4369;47.842;13.096;2023-05-07T03:01:37;5.57;;;4.60;;
8663;SDS011;4369;47.842;13.096;2023-05-07T03:04:04;5.20;;;4.63;;
8663;SDS011;4369;47.842;13.096;2023-05-07T03:06:31;4.80;;;4.30;;
8663;SDS011;4369;47.842;13.096;2023-05-07T03:16:45;7.23;;;4.07;;
8663;SDS011;4369;47.842;13.096;2023-05-07T03:19:13;4.63;;;4.23;;
8663;SDS011;4369;47.842;13.096;2023-05-07T03:21:40;4.90;;;4.20;;
8663;SDS011;4369;47.842;13.096;2023-05-07T03:24:09;4.63;;;4.07;;
8663;SDS011;4369;47.842;13.096;2023-05-07T04:02:48;4.33;;;4.03;;
8663;SDS011;4369;47.842;13.096;2023-05-07T04:15:37;4.80;;;4.40;;
8663;SDS011;4369;47.842;13.096;2023-05-07T04:18:05;6.60;;;4.13;;
8663;SDS011;4369;47.842;13.096;2023-05-07T04:20:33;4.23;;;3.83;;
8663;SDS011;4369;47.842;13.096;2023-05-07T04:36:00;4.20;;;3.90;;
8663;SDS011;4369;47.842;13.096;2023-05-07T04:38:29;6.30;;;4.23;;
8663;SDS011;4369;47.842;13.096;2023-05-07T04:40:56;4.20;;;3.70;;
8663;SDS011;4369;47.842;13.096;2023-05-07T04:43:23;4.10;;;3.80;;
8663;SDS011;4369;47.842;13.096;2023-05-07T04:45:50;4.67;;;4.10;;
8663;SDS011;4369;47.842;13.096;2023-05-07T04:48:17;5.00;;;4.60;;
8663;SDS011;4369;47.842;13.096;2023-05-07T04:50:46;5.23;;;4.27;;
8663;SDS011;4369;47.842;13.096;2023-05-07T04:53:15;4.30;;;3.90;;
8663;SDS011;4369;47.842;13.096;2023-05-07T04:55:42;8.63;;;4.50;;
8663;SDS011;4369;47.842;13.096;2023-05-07T04:58:10;5.13;;;4.43;;
8663;SDS011;4369;47.842;13.096;2023-05-07T05:00:37;4.87;;;4.47;;
8663;SDS011;4369;47.842;13.096;2023-05-07T05:03:04;4.60;;;4.00;;
8663;SDS011;4369;47.842;13.096;2023-05-07T05:05:32;5.53;;;4.00;;
8663;SDS011;4369;47.842;13.096;2023-05-07T05:07:59;5.20;;;3.70;;
8663;SDS011;4369;47.842;13.096;2023-05-07T05:10:27;8.07;;;4.07;;
8663;SDS011;4369;47.842;13.096;2023-05-07T05:12:55;5.17;;;4.63;;
8663;SDS011;4369;47.842;13.096;2023-05-07T05:15:22;4.67;;;4.27;;
8663;SDS011;4369;47.842;13.096;2023-05-07T05:17:49;4.93;;;4.50;;
8663;SDS011;4369;47.842;13.096;2023-05-07T05:20:16;5.67;;;4.27;;
8663;SDS011;4369;47.842;13.096;2023-05-07T05:22:43;5.00;;;4.50;;
8663;SDS011;4369;47.842;13.096;2023-05-07T05:25:10;9.17;;;4.87;;
8663;SDS011;4369;47.842;13.096;2023-05-07T05:27:38;5.37;;;4.87;;
8663;SDS011;4369;47.842;13.096;2023-05-07T05:30:06;6.00;;;4.80;;
8663;SDS011;4369;47.842;13.096;2023-05-07T05:32:33;6.03;;;4.20;;
8663;SDS011;4369;47.842;13.096;2023-05-07T05:35:00;5.07;;;4.33;;
8663;SDS011;4369;47.842;13.096;2023-05-07T05:37:27;8.87;;;4.43;;
8663;SDS011;4369;47.842;13.096;2023-05-07T05:39:55;4.67;;;4.27;;
8663;SDS011;4369;47.842;13.096;2023-05-07T05:42:22;4.90;;;4.53;;
8663;SDS011;4369;47.842;13.096;2023-05-07T05:44:50;5.40;;;4.93;;
8663;SDS011;4369;47.842;13.096;2023-05-07T05:47:17;5.47;;;4.97;;
8663;SDS011;4369;47.842;13.096;2023-05-07T05:49:44;5.20;;;4.70;;
8663;SDS011;4369;47.842;13.096;2023-05-07T05:52:12;6.37;;;4.90;;
8663;SDS011;4369;47.842;13.096;2023-05-07T05:54:39;5.03;;;4.63;;
8663;SDS011;4369;47.842;13.096;2023-05-07T05:57:06;5.27;;;4.87;;
8663;SDS011;4369;47.842;13.096;2023-05-07T05:59:33;5.40;;;4.90;;
8663;SDS011;4369;47.842;13.096;2023-05-07T06:02:01;5.73;;;5.23;;
8663;SDS011;4369;47.842;13.096;2023-05-07T06:04:30;6.90;;;5.10;;
8663;SDS011;4369;47.842;13.096;2023-05-07T06:06:57;5.03;;;4.63;;
8663;SDS011;4369;47.842;13.096;2023-05-07T06:09:23;5.20;;;4.70;;
8663;SDS011;4369;47.842;13.096;2023-05-07T06:11:50;5.20;;;4.80;;
8663;SDS011;4369;47.842;13.096;2023-05-07T06:14:17;4.87;;;4.47;;
8663;SDS011;4369;47.842;13.096;2023-05-07T06:16:44;4.83;;;4.30;;
8663;SDS011;4369;47.842;13.096;2023-05-07T06:19:12;4.47;;;4.17;;
8663;SDS011;4369;47.842;13.096;2023-05-07T06:21:39;4.90;;;4.50;;
8663;SDS011;4369;47.842;13.096;2023-05-07T06:24:06;5.10;;;4.70;;
8663;SDS011;4369;47.842;13.096;2023-05-07T06:26:33;5.13;;;4.73;;
8663;SDS011;4369;47.842;13.096;2023-05-07T06:29:00;4.50;;;4.20;;
8663;SDS011;4369;47.842;13.096;2023-05-07T06:31:30;5.67;;;4.27;;
8663;SDS011;4369;47.842;13.096;2023-05-07T06:33:59;5.93;;;4.10;;
8663;SDS011;4369;47.842;13.096;2023-05-07T06:36:34;4.57;;;4.23;;
8663;SDS011;4369;47.842;13.096;2023-05-07T06:39:02;3.73;;;3.43;;
8663;SDS011;4369;47.842;13.096;2023-05-07T06:41:29;3.70;;;3.40;;
8663;SDS011;4369;47.842;13.096;2023-05-07T06:43:56;4.10;;;3.70;;
8663;SDS011;4369;47.842;13.096;2023-05-07T06:46:22;4.83;;;4.17;;
8663;SDS011;4369;47.842;13.096;2023-05-07T06:48:49;3.90;;;3.60;;
8663;SDS011;4369;47.842;13.096;2023-05-07T06:51:18;4.00;;;3.67;;
8663;SDS011;4369;47.842;13.096;2023-05-07T06:53:46;4.67;;;3.97;;
8663;SDS011;4369;47.842;13.096;2023-05-07T06:56:13;3.77;;;3.47;;
8663;SDS011;4369;47.842;13.096;2023-05-07T06:58:40;4.13;;;3.73;;
8663;SDS011;4369;47.842;13.096;2023-05-07T07:01:07;4.23;;;3.83;;
8663;SDS011;4369;47.842;13.096;2023-05-07T07:03:34;4.67;;;4.27;;
8663;SDS011;4369;47.842;13.096;2023-05-07T07:06:00;4.47;;;3.93;;
8663;SDS011;4369;47.842;13.096;2023-05-07T07:08:28;6.23;;;3.80;;
8663;SDS011;4369;47.842;13.096;2023-05-07T07:10:56;4.10;;;3.70;;
8663;SDS011;4369;47.842;13.096;2023-05-07T07:13:23;4.63;;;4.23;;
8663;SDS011;4369;47.842;13.096;2023-05-07T07:15:51;5.93;;;3.70;;
8663;SDS011;4369;47.842;13.096;2023-05-07T07:18:18;3.97;;;3.40;;
8663;SDS011;4369;47.842;13.096;2023-05-07T07:20:45;3.70;;;3.40;;
8663;SDS011;4369;47.842;13.096;2023-05-07T07:23:12;4.10;;;3.70;;
8663;SDS011;4369;47.842;13.096;2023-05-07T07:25:39;3.40;;;3.10;;
8663;SDS011;4369;47.842;13.096;2023-05-07T07:28:07;4.30;;;3.13;;
8663;SDS011;4369;47.842;13.096;2023-05-07T07:30:35;3.80;;;3.43;;
8663;SDS011;4369;47.842;13.096;2023-05-07T07:33:03;4.07;;;3.30;;
8663;SDS011;4369;47.842;13.096;2023-05-07T07:35:30;3.47;;;3.17;;
8663;SDS011;4369;47.842;13.096;2023-05-07T07:37:57;3.23;;;3.00;;
8663;SDS011;4369;47.842;13.096;2023-05-07T07:40:24;3.60;;;3.30;;
8663;SDS011;4369;47.842;13.096;2023-05-07T07:45:30;4.17;;;3.50;;
8663;SDS011;4369;47.842;13.096;2023-05-07T07:47:57;3.53;;;2.80;;
8663;SDS011;4369;47.842;13.096;2023-05-07T07:50:24;3.20;;;2.97;;
8663;SDS011;4369;47.842;13.096;2023-05-07T07:52:51;2.97;;;2.77;;
8663;SDS011;4369;47.842;13.096;2023-05-07T07:55:19;3.30;;;3.10;;
8663;SDS011;4369;47.842;13.096;2023-05-07T07:57:48;3.17;;;2.97;;
8663;SDS011;4369;47.842;13.096;2023-05-07T08:00:15;3.17;;;2.93;;
8663;SDS011;4369;47.842;13.096;2023-05-07T08:02:44;2.90;;;2.70;;
8663;SDS011;4369;47.842;13.096;2023-05-07T08:05:11;4.37;;;3.13;;
8663;SDS011;4369;47.842;13.096;2023-05-07T08:07:38;3.27;;;3.07;;
8663;SDS011;4369;47.842;13.096;2023-05-07T08:10:05;3.00;;;2.70;;
8663;SDS011;4369;47.842;13.096;2023-05-07T08:12:32;3.50;;;3.20;;
8663;SDS011;4369;47.842;13.096;2023-05-07T08:14:59;4.50;;;2.80;;
8663;SDS011;4369;47.842;13.096;2023-05-07T08:17:26;3.40;;;2.90;;
8663;SDS011;4369;47.842;13.096;2023-05-07T08:19:54;4.93;;;3.00;;
8663;SDS011;4369;47.842;13.096;2023-05-07T08:22:21;3.47;;;2.83;;
8663;SDS011;4369;47.842;13.096;2023-05-07T08:24:48;2.90;;;2.70;;
8663;SDS011;4369;47.842;13.096;2023-05-07T08:27:16;3.63;;;3.33;;
8663;SDS011;4369;47.842;13.096;2023-05-07T08:29:42;2.83;;;2.63;;
8663;SDS011;4369;47.842;13.096;2023-05-07T08:32:12;3.30;;;2.57;;
8663;SDS011;4369;47.842;13.096;2023-05-07T08:34:39;4.70;;;2.33;;
8663;SDS011;4369;47.842;13.096;2023-05-07T08:37:08;3.10;;;2.80;;
8663;SDS011;4369;47.842;13.096;2023-05-07T08:39:35;6.50;;;4.00;;
8663;SDS011;4369;47.842;13.096;2023-05-07T08:42:02;5.70;;;4.00;;
8663;SDS011;4369;47.842;13.096;2023-05-07T08:44:31;2.70;;;2.50;;
8663;SDS011;4369;47.842;13.096;2023-05-07T08:47:00;3.90;;;2.63;;
8663;SDS011;4369;47.842;13.096;2023-05-07T08:49:28;3.77;;;2.60;;
8663;SDS011;4369;47.842;13.096;2023-05-07T08:51:55;3.20;;;2.90;;
8663;SDS011;4369;47.842;13.096;2023-05-07T08:54:23;2.90;;;2.70;;
8663;SDS011;4369;47.842;13.096;2023-05-07T08:56:52;3.40;;;2.77;;
8663;SDS011;4369;47.842;13.096;2023-05-07T08:59:18;3.27;;;3.00;;
8663;SDS011;4369;47.842;13.096;2023-05-07T09:01:45;3.07;;;2.67;;
8663;SDS011;4369;47.842;13.096;2023-05-07T09:04:12;3.27;;;2.90;;
8663;SDS011;4369;47.842;13.096;2023-05-07T09:06:39;2.90;;;2.70;;
8663;SDS011;4369;47.842;13.096;2023-05-07T09:09:07;3.43;;;3.10;;
8663;SDS011;4369;47.842;13.096;2023-05-07T09:11:35;3.37;;;3.07;;
8663;SDS011;4369;47.842;13.096;2023-05-07T09:14:02;4.87;;;3.53;;
8663;SDS011;4369;47.842;13.096;2023-05-07T09:16:29;4.00;;;3.60;;
8663;SDS011;4369;47.842;13.096;2023-05-07T09:18:57;4.00;;;3.60;;
8663;SDS011;4369;47.842;13.096;2023-05-07T09:21:34;3.90;;;3.50;;
8663;SDS011;4369;47.842;13.096;2023-05-07T09:24:02;5.03;;;3.70;;
8663;SDS011;4369;47.842;13.096;2023-05-07T09:26:29;4.77;;;3.80;;
8663;SDS011;4369;47.842;13.096;2023-05-07T09:28:59;4.73;;;4.20;;
8663;SDS011;4369;47.842;13.096;2023-05-07T09:31:26;4.33;;;3.93;;
8663;SDS011;4369;47.842;13.096;2023-05-07T09:33:53;4.37;;;3.97;;
8663;SDS011;4369;47.842;13.096;2023-05-07T09:36:20;3.90;;;3.60;;
8663;SDS011;4369;47.842;13.096;2023-05-07T09:38:47;4.47;;;3.63;;
8663;SDS011;4369;47.842;13.096;2023-05-07T09:41:16;5.10;;;4.60;;
8663;SDS011;4369;47.842;13.096;2023-05-07T09:43:43;4.93;;;4.13;;
8663;SDS011;4369;47.842;13.096;2023-05-07T09:46:13;4.77;;;3.80;;
8663;SDS011;4369;47.842;13.096;2023-05-07T09:48:42;4.60;;;4.30;;
8663;SDS011;4369;47.842;13.096;2023-05-07T09:51:21;5.43;;;4.93;;
8663;SDS011;4369;47.842;13.096;2023-05-07T09:53:52;6.93;;;5.07;;
8663;SDS011;4369;47.842;13.096;2023-05-07T09:56:19;4.67;;;4.13;;
8663;SDS011;4369;47.842;13.096;2023-05-07T09:58:47;6.13;;;5.47;;
8663;SDS011;4369;47.842;13.096;2023-05-07T10:01:17;6.23;;;4.87;;
8663;SDS011;4369;47.842;13.096;2023-05-07T10:03:47;6.27;;;5.70;;
8663;SDS011;4369;47.842;13.096;2023-05-07T10:06:16;8.73;;;7.37;;
8663;SDS011;4369;47.842;13.096;2023-05-07T10:08:43;8.23;;;7.43;;
8663;SDS011;4369;47.842;13.096;2023-05-07T10:11:11;6.83;;;6.13;;
8663;SDS011;4369;47.842;13.096;2023-05-07T10:13:40;6.67;;;6.07;;
8663;SDS011;4369;47.842;13.096;2023-05-07T10:16:08;7.57;;;6.83;;
8663;SDS011;4369;47.842;13.096;2023-05-07T10:18:37;8.07;;;6.90;;
8663;SDS011;4369;47.842;13.096;2023-05-07T10:21:07;7.87;;;6.77;;
8663;SDS011;4369;47.842;13.096;2023-05-07T10:23:34;7.27;;;6.60;;
8663;SDS011;4369;47.842;13.096;2023-05-07T10:26:03;7.40;;;6.20;;
8663;SDS011;4369;47.842;13.096;2023-05-07T10:28:33;7.97;;;7.17;;
8663;SDS011;4369;47.842;13.096;2023-05-07T10:31:12;6.90;;;6.30;;
8663;SDS011;4369;47.842;13.096;2023-05-07T10:33:51;6.60;;;6.00;;
8663;SDS011;4369;47.842;13.096;2023-05-07T10:36:20;6.07;;;5.50;;
8663;SDS011;4369;47.842;13.096;2023-05-07T10:38:48;5.63;;;5.23;;
8663;SDS011;4369;47.842;13.096;2023-05-07T10:41:15;5.47;;;4.97;;
8663;SDS011;4369;47.842;13.096;2023-05-07T10:43:44;5.57;;;5.07;;
8663;SDS011;4369;47.842;13.096;2023-05-07T10:46:13;5.60;;;5.00;;
8663;SDS011;4369;47.842;13.096;2023-05-07T10:51:37;4.07;;;3.67;;
8663;SDS011;4369;47.842;13.096;2023-05-07T10:54:21;4.38;;;3.97;;
8663;SDS011;4369;47.842;13.096;2023-05-07T10:56:50;4.60;;;4.30;;
8663;SDS011;4369;47.842;13.096;2023-05-07T11:02:14;3.95;;;3.65;;
8663;SDS011;4369;47.842;13.096;2023-05-07T11:04:42;3.92;;;3.40;;
8663;SDS011;4369;47.842;13.096;2023-05-07T11:07:21;2.83;;;2.63;;
8663;SDS011;4369;47.842;13.096;2023-05-07T11:09:54;3.78;;;3.47;;
8663;SDS011;4369;47.842;13.096;2023-05-07T11:15:33;5.03;;;2.85;;
8663;SDS011;4369;47.842;13.096;2023-05-07T11:18:01;4.45;;;3.40;;
8663;SDS011;4369;47.842;13.096;2023-05-07T11:26:26;3.47;;;2.83;;
8663;SDS011;4369;47.842;13.096;2023-05-07T11:28:54;4.50;;;3.03;;
8663;SDS011;4369;47.842;13.096;2023-05-07T11:31:22;5.22;;;3.03;;
8663;SDS011;4369;47.842;13.096;2023-05-07T11:33:51;4.90;;;3.22;;
8663;SDS011;4369;47.842;13.096;2023-05-07T11:36:20;3.85;;;3.10;;
8663;SDS011;4369;47.842;13.096;2023-05-07T11:38:48;3.50;;;3.20;;
8663;SDS011;4369;47.842;13.096;2023-05-07T11:41:16;3.20;;;3.00;;
8663;SDS011;4369;47.842;13.096;2023-05-07T11:43:54;4.18;;;3.10;;
8663;SDS011;4369;47.842;13.096;2023-05-07T11:46:22;3.28;;;2.97;;
8663;SDS011;4369;47.842;13.096;2023-05-07T11:48:49;6.43;;;2.95;;
8663;SDS011;4369;47.842;13.096;2023-05-07T11:51:21;2.90;;;2.70;;
8663;SDS011;4369;47.842;13.096;2023-05-07T11:53:49;3.35;;;2.70;;
8663;SDS011;4369;47.842;13.096;2023-05-07T11:56:17;3.05;;;2.83;;
8663;SDS011;4369;47.842;13.096;2023-05-07T11:58:45;4.15;;;3.10;;
8663;SDS011;4369;47.842;13.096;2023-05-07T12:01:13;3.45;;;3.15;;
8663;SDS011;4369;47.842;13.096;2023-05-07T12:03:41;3.92;;;3.10;;
8663;SDS011;4369;47.842;13.096;2023-05-07T12:06:11;3.83;;;2.95;;
8663;SDS011;4369;47.842;13.096;2023-05-07T12:08:40;3.50;;;3.20;;
8663;SDS011;4369;47.842;13.096;2023-05-07T12:11:09;3.42;;;3.10;;
8663;SDS011;4369;47.842;13.096;2023-05-07T12:13:38;4.35;;;3.13;;
8663;SDS011;4369;47.842;13.096;2023-05-07T12:16:06;3.42;;;3.00;;
8663;SDS011;4369;47.842;13.096;2023-05-07T12:18:34;3.38;;;3.05;;
8663;SDS011;4369;47.842;13.096;2023-05-07T12:21:02;3.13;;;2.83;;
8663;SDS011;4369;47.842;13.096;2023-05-07T12:23:32;3.13;;;2.92;;
8663;SDS011;4369;47.842;13.096;2023-05-07T12:26:01;2.70;;;2.47;;
8663;SDS011;4369;47.842;13.096;2023-05-07T12:28:29;3.28;;;2.65;;
8663;SDS011;4369;47.842;13.096;2023-05-07T12:30:56;5.95;;;2.97;;
8663;SDS011;4369;47.842;13.096;2023-05-07T12:33:24;3.40;;;3.10;;
8663;SDS011;4369;47.842;13.096;2023-05-07T12:35:54;2.47;;;2.28;;
8663;SDS011;4369;47.842;13.096;2023-05-07T12:38:21;3.30;;;2.72;;
8663;SDS011;4369;47.842;13.096;2023-05-07T12:40:49;2.75;;;2.60;;
8663;SDS011;4369;47.842;13.096;2023-05-07T12:43:18;3.13;;;2.88;;
8663;SDS011;4369;47.842;13.096;2023-05-07T12:45:46;3.45;;;2.78;;
8663;SDS011;4369;47.842;13.096;2023-05-07T12:48:14;3.20;;;2.70;;
8663;SDS011;4369;47.842;13.096;2023-05-07T12:50:41;3.03;;;2.83;;
8663;SDS011;4369;47.842;13.096;2023-05-07T12:53:09;3.38;;;3.08;;
8663;SDS011;4369;47.842;13.096;2023-05-07T12:55:40;3.03;;;2.72;;
8663;SDS011;4369;47.842;13.096;2023-05-07T12:58:08;3.63;;;2.88;;
8663;SDS011;4369;47.842;13.096;2023-05-07T13:00:43;3.08;;;2.80;;
8663;SDS011;4369;47.842;13.096;2023-05-07T13:03:11;2.97;;;2.78;;
8663;SDS011;4369;47.842;13.096;2023-05-07T13:05:38;3.30;;;3.00;;
8663;SDS011;4369;47.842;13.096;2023-05-07T13:08:06;3.90;;;3.08;;
8663;SDS011;4369;47.842;13.096;2023-05-07T13:10:34;3.08;;;2.85;;
8663;SDS011;4369;47.842;13.096;2023-05-07T13:13:01;3.05;;;2.83;;
8663;SDS011;4369;47.842;13.096;2023-05-07T13:15:28;3.05;;;2.72;;
8663;SDS011;4369;47.842;13.096;2023-05-07T13:17:57;3.17;;;2.80;;
8663;SDS011;4369;47.842;13.096;2023-05-07T13:20:24;3.60;;;3.00;;
8663;SDS011;4369;47.842;13.096;2023-05-07T13:22:51;3.28;;;2.80;;
8663;SDS011;4369;47.842;13.096;2023-05-07T13:25:17;2.90;;;2.55;;
8663;SDS011;4369;47.842;13.096;2023-05-07T13:27:45;2.80;;;2.60;;
8663;SDS011;4369;47.842;13.096;2023-05-07T13:30:12;3.90;;;2.80;;
8663;SDS011;4369;47.842;13.096;2023-05-07T13:32:39;3.10;;;2.78;;
8663;SDS011;4369;47.842;13.096;2023-05-07T13:35:07;2.90;;;2.60;;
8663;SDS011;4369;47.842;13.096;2023-05-07T13:37:35;3.45;;;2.85;;
8663;SDS011;4369;47.842;13.096;2023-05-07T13:40:02;3.88;;;2.80;;
8663;SDS011;4369;47.842;13.096;2023-05-07T13:42:29;3.08;;;2.60;;
8663;SDS011;4369;47.842;13.096;2023-05-07T13:44:56;2.92;;;2.70;;
8663;SDS011;4369;47.842;13.096;2023-05-07T13:47:23;3.00;;;2.80;;
8663;SDS011;4369;47.842;13.096;2023-05-07T13:49:50;3.22;;;2.67;;
8663;SDS011;4369;47.842;13.096;2023-05-07T13:52:19;2.78;;;2.58;;
8663;SDS011;4369;47.842;13.096;2023-05-07T13:54:46;2.85;;;2.60;;
8663;SDS011;4369;47.842;13.096;2023-05-07T13:57:13;2.78;;;2.58;;
8663;SDS011;4369;47.842;13.096;2023-05-07T13:59:40;3.25;;;3.05;;
8663;SDS011;4369;47.842;13.096;2023-05-07T14:02:07;3.35;;;3.00;;
8663;SDS011;4369;47.842;13.096;2023-05-07T14:04:34;3.47;;;2.80;;
8663;SDS011;4369;47.842;13.096;2023-05-07T14:07:01;2.92;;;2.72;;
8663;SDS011;4369;47.842;13.096;2023-05-07T14:09:29;2.80;;;2.60;;
8663;SDS011;4369;47.842;13.096;2023-05-07T14:11:56;3.20;;;3.00;;
8663;SDS011;4369;47.842;13.096;2023-05-07T14:14:23;2.90;;;2.60;;
8663;SDS011;4369;47.842;13.096;2023-05-07T14:16:50;5.63;;;3.13;;
8663;SDS011;4369;47.842;13.096;2023-05-07T14:19:17;3.00;;;2.70;;
8663;SDS011;4369;47.842;13.096;2023-05-07T14:21:44;2.95;;;2.75;;
8663;SDS011;4369;47.842;13.096;2023-05-07T14:24:11;3.28;;;2.90;;
8663;SDS011;4369;47.842;13.096;2023-05-07T14:26:39;3.53;;;2.95;;
8663;SDS011;4369;47.842;13.096;2023-05-07T14:29:06;3.33;;;3.03;;
8663;SDS011;4369;47.842;13.096;2023-05-07T14:31:32;2.97;;;2.78;;
8663;SDS011;4369;47.842;13.096;2023-05-07T14:33:59;3.15;;;2.85;;
8663;SDS011;4369;47.842;13.096;2023-05-07T14:36:27;3.10;;;2.80;;
8663;SDS011;4369;47.842;13.096;2023-05-07T14:38:55;3.00;;;2.70;;
8663;SDS011;4369;47.842;13.096;2023-05-07T14:41:24;3.13;;;2.92;;
8663;SDS011;4369;47.842;13.096;2023-05-07T14:43:52;3.10;;;2.80;;
8663;SDS011;4369;47.842;13.096;2023-05-07T14:46:19;3.33;;;2.83;;
8663;SDS011;4369;47.842;13.096;2023-05-07T14:48:46;3.08;;;2.88;;
8663;SDS011;4369;47.842;13.096;2023-05-07T14:51:13;3.13;;;2.92;;
8663;SDS011;4369;47.842;13.096;2023-05-07T14:53:40;2.97;;;2.78;;
8663;SDS011;4369;47.842;13.096;2023-05-07T14:56:08;3.40;;;3.20;;
8663;SDS011;4369;47.842;13.096;2023-05-07T14:58:35;3.72;;;3.20;;
8663;SDS011;4369;47.842;13.096;2023-05-07T15:01:04;3.08;;;2.88;;
8663;SDS011;4369;47.842;13.096;2023-05-07T15:03:31;3.00;;;2.80;;
8663;SDS011;4369;47.842;13.096;2023-05-07T15:05:58;3.60;;;3.30;;
8663;SDS011;4369;47.842;13.096;2023-05-07T15:08:25;3.03;;;2.80;;
8663;SDS011;4369;47.842;13.096;2023-05-07T15:10:52;3.72;;;3.42;;
8663;SDS011;4369;47.842;13.096;2023-05-07T15:13:20;5.22;;;3.08;;
8663;SDS011;4369;47.842;13.096;2023-05-07T15:15:47;3.60;;;3.30;;
8663;SDS011;4369;47.842;13.096;2023-05-07T15:18:16;3.60;;;3.30;;
8663;SDS011;4369;47.842;13.096;2023-05-07T15:20:42;3.40;;;3.10;;
8663;SDS011;4369;47.842;13.096;2023-05-07T15:23:10;3.33;;;3.08;;
8663;SDS011;4369;47.842;13.096;2023-05-07T15:25:39;4.28;;;3.83;;
8663;SDS011;4369;47.842;13.096;2023-05-07T15:28:05;3.78;;;3.35;;
8663;SDS011;4369;47.842;13.096;2023-05-07T15:30:32;4.30;;;3.83;;
8663;SDS011;4369;47.842;13.096;2023-05-07T15:33:00;4.15;;;3.03;;
8663;SDS011;4369;47.842;13.096;2023-05-07T15:35:29;3.45;;;3.15;;
8663;SDS011;4369;47.842;13.096;2023-05-07T15:37:56;4.05;;;3.10;;
8663;SDS011;4369;47.842;13.096;2023-05-07T15:40:22;3.08;;;2.78;;
8663;SDS011;4369;47.842;13.096;2023-05-07T15:42:50;3.28;;;3.08;;
8663;SDS011;4369;47.842;13.096;2023-05-07T15:45:21;3.58;;;3.28;;
8663;SDS011;4369;47.842;13.096;2023-05-07T15:47:48;3.22;;;3.00;;
8663;SDS011;4369;47.842;13.096;2023-05-07T15:50:15;4.13;;;3.25;;
8663;SDS011;4369;47.842;13.096;2023-05-07T15:52:43;3.30;;;3.00;;
8663;SDS011;4369;47.842;13.096;2023-05-07T15:55:14;3.30;;;2.90;;
8663;SDS011;4369;47.842;13.096;2023-05-07T16:00:30;3.63;;;3.27;;
8663;SDS011;4369;47.842;13.096;2023-05-07T16:05:50;3.83;;;3.53;;
8663;SDS011;4369;47.842;13.096;2023-05-07T16:08:22;3.50;;;3.10;;
8663;SDS011;4369;47.842;13.096;2023-05-07T16:11:40;3.70;;;3.40;;
8663;SDS011;4369;47.842;13.096;2023-05-07T16:14:08;3.50;;;3.20;;
8663;SDS011;4369;47.842;13.096;2023-05-07T16:16:44;4.07;;;3.33;;
8663;SDS011;4369;47.842;13.096;2023-05-07T16:19:11;4.10;;;3.43;;
8663;SDS011;4369;47.842;13.096;2023-05-07T16:21:37;3.90;;;3.47;;
8663;SDS011;4369;47.842;13.096;2023-05-07T16:24:06;4.20;;;3.27;;
8663;SDS011;4369;47.842;13.096;2023-05-07T16:26:33;3.83;;;3.53;;
8663;SDS011;4369;47.842;13.096;2023-05-07T16:29:00;4.27;;;3.27;;
8663;SDS011;4369;47.842;13.096;2023-05-07T16:31:29;4.53;;;3.20;;
8663;SDS011;4369;47.842;13.096;2023-05-07T16:33:56;3.47;;;3.17;;
8663;SDS011;4369;47.842;13.096;2023-05-07T16:36:25;3.30;;;3.00;;
8663;SDS011;4369;47.842;13.096;2023-05-07T16:38:52;4.27;;;3.13;;
8663;SDS011;4369;47.842;13.096;2023-05-07T16:41:21;4.33;;;3.20;;
8663;SDS011;4369;47.842;13.096;2023-05-07T16:43:48;3.60;;;3.23;;
8663;SDS011;4369;47.842;13.096;2023-05-07T16:46:15;3.63;;;2.97;;
8663;SDS011;4369;47.842;13.096;2023-05-07T16:48:42;3.40;;;3.10;;
8663;SDS011;4369;47.842;13.096;2023-05-07T16:51:09;3.47;;;2.90;;
8663;SDS011;4369;47.842;13.096;2023-05-07T16:53:35;3.57;;;2.97;;
8663;SDS011;4369;47.842;13.096;2023-05-07T16:56:03;3.17;;;2.90;;
8663;SDS011;4369;47.842;13.096;2023-05-07T16:58:32;3.50;;;3.20;;
8663;SDS011;4369;47.842;13.096;2023-05-07T17:00:59;3.40;;;3.10;;
8663;SDS011;4369;47.842;13.096;2023-05-07T17:03:26;4.27;;;3.23;;
8663;SDS011;4369;47.842;13.096;2023-05-07T17:05:54;5.47;;;3.70;;
8663;SDS011;4369;47.842;13.096;2023-05-07T17:08:21;23.57;;;15.97;;
8663;SDS011;4369;47.842;13.096;2023-05-07T17:10:48;22.73;;;15.83;;
8663;SDS011;4369;47.842;13.096;2023-05-07T17:13:15;13.17;;;10.53;;
8663;SDS011;4369;47.842;13.096;2023-05-07T17:15:43;7.33;;;6.33;;
8663;SDS011;4369;47.842;13.096;2023-05-07T17:18:11;3.60;;;3.30;;
8663;SDS011;4369;47.842;13.096;2023-05-07T17:20:38;3.50;;;3.20;;
8663;SDS011;4369;47.842;13.096;2023-05-07T17:23:05;5.83;;;5.43;;
8663;SDS011;4369;47.842;13.096;2023-05-07T17:25:33;5.00;;;4.60;;
8663;SDS011;4369;47.842;13.096;2023-05-07T17:28:00;4.00;;;3.70;;
8663;SDS011;4369;47.842;13.096;2023-05-07T17:30:27;4.80;;;4.30;;
8663;SDS011;4369;47.842;13.096;2023-05-07T17:32:55;4.47;;;4.07;;
8663;SDS011;4369;47.842;13.096;2023-05-07T17:35:22;4.83;;;4.43;;
8663;SDS011;4369;47.842;13.096;2023-05-07T17:37:51;4.17;;;3.77;;
8663;SDS011;4369;47.842;13.096;2023-05-07T17:40:18;7.17;;;4.90;;
8663;SDS011;4369;47.842;13.096;2023-05-07T17:42:46;13.90;;;12.53;;
8663;SDS011;4369;47.842;13.096;2023-05-07T17:45:13;8.70;;;7.80;;
8663;SDS011;4369;47.842;13.096;2023-05-07T17:47:41;4.43;;;4.07;;
8663;SDS011;4369;47.842;13.096;2023-05-07T17:50:09;4.20;;;3.80;;
8663;SDS011;4369;47.842;13.096;2023-05-07T17:52:37;3.33;;;3.13;;